createdAt,value
2023-03-12T00:01:59.296Z,0.33
2023-03-12T00:04:26.236Z,0.30
2023-03-12T00:06:52.609Z,0.33
2023-03-12T00:09:19.004Z,0.27
2023-03-12T00:11:45.336Z,0.29
2023-03-12T00:14:11.698Z,0.26
2023-03-12T00:16:38.053Z,0.23
2023-03-12T00:19:04.455Z,0.23
2023-03-12T00:21:30.976Z,0.17
2023-03-12T00:23:57.455Z,0.20
2023-03-12T00:26:23.841Z,0.20
2023-03-12T00:28:50.408Z,0.22
2023-03-12T00:31:27.068Z,0.21
2023-03-12T00:33:54.480Z,0.20
2023-03-12T00:36:24.212Z,0.20
2023-03-12T00:38:51.927Z,0.20
2023-03-12T00:41:19.982Z,0.18
2023-03-12T00:43:49.789Z,0.18
2023-03-12T00:46:16.424Z,0.15
2023-03-12T00:48:42.887Z,0.16
2023-03-12T00:51:09.504Z,0.16
2023-03-12T00:53:36.114Z,0.14
2023-03-12T00:56:03.033Z,0.17
2023-03-12T00:58:29.558Z,0.18
2023-03-12T01:00:55.937Z,0.17
2023-03-12T01:03:22.350Z,0.16
2023-03-12T01:05:54.060Z,0.14
2023-03-12T01:08:21.425Z,0.13
2023-03-12T01:10:47.861Z,0.13
2023-03-12T01:13:14.239Z,0.14
2023-03-12T01:15:40.586Z,0.14
2023-03-12T01:18:07.141Z,0.14
2023-03-12T01:20:33.545Z,0.12
2023-03-12T01:23:00.120Z,0.12
2023-03-12T01:25:26.461Z,0.15
2023-03-12T01:27:52.848Z,0.17
2023-03-12T01:30:19.396Z,0.19
2023-03-12T01:32:45.812Z,0.18
2023-03-12T01:35:12.239Z,0.17
2023-03-12T01:37:38.820Z,0.16
2023-03-12T01:40:05.688Z,0.15
2023-03-12T01:42:32.261Z,0.11
2023-03-12T01:45:00.221Z,0.11
2023-03-12T01:47:27.301Z,0.13
2023-03-12T01:49:54.321Z,0.14
2023-03-12T01:52:27.935Z,0.10
2023-03-12T01:55:03.578Z,0.04
2023-03-12T01:57:36.745Z,0.02
2023-03-12T02:00:13.881Z,0.01
2023-03-12T02:02:40.273Z,-0.01
2023-03-12T02:05:21.436Z,-0.02
2023-03-12T02:07:48.473Z,-0.02
2023-03-12T02:10:15.623Z,0.00
2023-03-12T02:12:42.207Z,0.03
2023-03-12T02:15:09.071Z,0.04
2023-03-12T02:17:35.945Z,0.01
2023-03-12T02:20:19.985Z,0.03
2023-03-12T02:22:52.521Z,0.01
2023-03-12T02:25:19.001Z,0.01
2023-03-12T02:27:45.363Z,0.00
2023-03-12T02:30:15.910Z,-0.04
2023-03-12T02:32:42.286Z,-0.10
2023-03-12T02:35:09.226Z,-0.12
2023-03-12T02:37:35.569Z,-0.21
2023-03-12T02:40:22.669Z,-0.33
2023-03-12T02:42:49.077Z,-0.43
2023-03-12T02:45:15.470Z,-0.47
2023-03-12T02:47:42.028Z,-0.52
2023-03-12T02:50:08.961Z,-0.51
2023-03-12T02:52:35.590Z,-0.46
2023-03-12T02:55:02.339Z,-0.36
2023-03-12T02:57:28.745Z,-0.34
2023-03-12T02:59:55.097Z,-0.37
2023-03-12T03:02:21.447Z,-0.40
2023-03-12T03:04:48.039Z,-0.34
2023-03-12T03:07:14.874Z,-0.37
2023-03-12T03:09:41.517Z,-0.40
2023-03-12T03:12:08.002Z,-0.37
2023-03-12T03:14:34.451Z,-0.41
2023-03-12T03:17:01.053Z,-0.41
2023-03-12T03:19:27.419Z,-0.33
2023-03-12T03:21:53.943Z,-0.38
2023-03-12T03:24:20.975Z,-0.44
2023-03-12T03:26:47.345Z,-0.41
2023-03-12T03:29:13.873Z,-0.38
2023-03-12T03:31:40.229Z,-0.35
2023-03-12T03:34:06.776Z,-0.30
2023-03-12T03:36:33.162Z,-0.32
2023-03-12T03:38:59.775Z,-0.31
2023-03-12T03:41:26.858Z,-0.26
2023-03-12T03:43:56.423Z,-0.26
2023-03-12T03:46:22.867Z,-0.26
2023-03-12T03:48:50.870Z,-0.26
2023-03-12T03:51:17.321Z,-0.24
2023-03-12T03:53:43.668Z,-0.26
2023-03-12T03:56:11.721Z,-0.27
2023-03-12T03:58:38.133Z,-0.29
2023-03-12T04:01:04.977Z,-0.30
2023-03-12T04:03:31.425Z,-0.38
2023-03-12T04:05:59.702Z,-0.47
2023-03-12T04:08:26.212Z,-0.51
2023-03-12T04:10:52.655Z,-0.53
2023-03-12T04:13:19.205Z,-0.58
2023-03-12T04:15:47.524Z,-0.60
2023-03-12T04:18:14.205Z,-0.62
2023-03-12T04:20:40.621Z,-0.62
2023-03-12T04:23:07.179Z,-0.66
2023-03-12T04:25:33.529Z,-0.78
2023-03-12T04:27:59.888Z,-0.83
2023-03-12T04:30:26.266Z,-0.89
2023-03-12T04:32:53.269Z,-0.85
2023-03-12T04:35:20.083Z,-0.79
2023-03-12T04:37:46.504Z,-0.76
2023-03-12T04:40:13.116Z,-0.79
2023-03-12T04:42:39.576Z,-0.65
2023-03-12T04:45:06.633Z,-0.60
2023-03-12T04:47:33.704Z,-0.53
2023-03-12T04:50:00.330Z,-0.57
2023-03-12T04:52:27.110Z,-0.58
2023-03-12T04:54:54.109Z,-0.56
2023-03-12T04:57:20.573Z,-0.50
2023-03-12T04:59:47.132Z,-0.45
2023-03-12T05:02:13.488Z,-0.44
2023-03-12T05:04:40.039Z,-0.41
2023-03-12T05:07:06.540Z,-0.40
2023-03-12T05:09:33.066Z,-0.44
2023-03-12T05:11:59.418Z,-0.51
2023-03-12T05:14:25.915Z,-0.57
2023-03-12T05:16:52.455Z,-0.61
2023-03-12T05:19:18.804Z,-0.65
2023-03-12T05:21:45.237Z,-0.71
2023-03-12T05:24:12.048Z,-0.71
2023-03-12T05:26:38.416Z,-0.71
2023-03-12T05:29:05.037Z,-0.67
2023-03-12T05:31:34.938Z,-0.67
2023-03-12T05:34:02.531Z,-0.65
2023-03-12T05:36:28.996Z,-0.57
2023-03-12T05:38:55.426Z,-0.48
2023-03-12T05:41:26.759Z,-0.48
2023-03-12T05:43:54.235Z,-0.53
2023-03-12T05:46:20.928Z,-0.59
2023-03-12T05:48:47.518Z,-0.61
2023-03-12T05:51:13.860Z,-0.66
2023-03-12T05:53:40.408Z,-0.70
2023-03-12T05:56:08.354Z,-0.69
2023-03-12T05:58:35.257Z,-0.67
2023-03-12T06:01:02.049Z,-0.73
2023-03-12T06:03:28.539Z,-0.67
2023-03-12T06:05:56.195Z,-0.65
2023-03-12T06:08:23.541Z,-0.62
2023-03-12T06:10:54.761Z,-0.58
2023-03-12T06:13:22.376Z,-0.55
2023-03-12T06:15:49.146Z,-0.50
2023-03-12T06:18:15.738Z,-0.44
2023-03-12T06:20:42.321Z,-0.39
2023-03-12T06:23:08.899Z,-0.37
2023-03-12T06:25:35.274Z,-0.36
2023-03-12T06:28:01.632Z,-0.33
2023-03-12T06:30:28.104Z,-0.30
2023-03-12T06:32:54.620Z,-0.26
2023-03-12T06:35:21.126Z,-0.22
2023-03-12T06:37:47.721Z,-0.16
2023-03-12T06:40:14.103Z,-0.12
2023-03-12T06:42:40.447Z,-0.10
2023-03-12T06:45:07.587Z,-0.05
2023-03-12T06:47:33.940Z,0.03
2023-03-12T06:50:00.365Z,0.08
2023-03-12T06:52:27.175Z,0.13
2023-03-12T06:54:53.525Z,0.17
2023-03-12T06:57:19.946Z,0.22
2023-03-12T06:59:48.140Z,0.31
2023-03-12T07:02:16.417Z,0.35
2023-03-12T07:04:42.848Z,0.39
2023-03-12T07:07:11.477Z,0.42
2023-03-12T07:09:37.948Z,0.49
2023-03-12T07:12:04.452Z,0.54
2023-03-12T07:14:31.067Z,0.59
2023-03-12T07:16:57.904Z,0.64
2023-03-12T07:19:24.394Z,0.68
2023-03-12T07:21:50.804Z,0.75
2023-03-12T07:24:17.162Z,0.84
2023-03-12T07:26:43.707Z,0.89
2023-03-12T07:29:10.121Z,0.97
2023-03-12T07:31:36.508Z,1.03
2023-03-12T07:34:03.135Z,1.12
2023-03-12T07:36:29.907Z,1.19
2023-03-12T07:38:56.501Z,1.18
2023-03-12T07:41:22.904Z,1.22
2023-03-12T07:43:49.497Z,1.26
2023-03-12T07:46:15.980Z,1.30
2023-03-12T07:48:44.321Z,1.33
2023-03-12T07:51:11.039Z,1.35
2023-03-12T07:53:37.416Z,1.39
2023-03-12T07:56:03.997Z,1.43
2023-03-12T07:58:30.808Z,1.46
2023-03-12T08:00:57.325Z,1.48
2023-03-12T08:03:23.909Z,1.55
2023-03-12T08:06:01.606Z,1.60
2023-03-12T08:08:28.325Z,1.62
2023-03-12T08:10:54.793Z,1.67
2023-03-12T08:13:22.845Z,1.70
2023-03-12T08:15:50.940Z,1.71
2023-03-12T08:18:18.099Z,1.76
2023-03-12T08:20:44.685Z,1.85
2023-03-12T08:23:11.308Z,1.91
2023-03-12T08:25:37.786Z,1.99
2023-03-12T08:28:04.918Z,2.02
2023-03-12T08:30:31.343Z,2.04
2023-03-12T08:32:58.146Z,2.13
2023-03-12T08:35:24.770Z,2.20
2023-03-12T08:37:51.171Z,2.31
2023-03-12T08:40:18.638Z,2.36
2023-03-12T08:42:45.358Z,2.45
2023-03-12T08:45:12.243Z,2.47
2023-03-12T08:47:41.480Z,2.46
2023-03-12T08:50:09.386Z,2.47
2023-03-12T08:52:35.759Z,2.52
2023-03-12T08:55:02.129Z,2.56
2023-03-12T08:57:29.105Z,2.58
2023-03-12T08:59:55.491Z,2.59
2023-03-12T09:02:21.871Z,2.68
2023-03-12T09:04:49.274Z,2.84
2023-03-12T09:07:18.346Z,2.97
2023-03-12T09:09:44.990Z,3.00
2023-03-12T09:12:11.694Z,3.04
2023-03-12T09:17:24.377Z,3.08
2023-03-12T09:19:50.731Z,3.15
2023-03-12T09:22:17.402Z,3.21
2023-03-12T09:24:43.801Z,3.28
2023-03-12T09:27:10.241Z,3.34
2023-03-12T09:29:41.397Z,3.51
2023-03-12T09:32:15.695Z,3.72
2023-03-12T09:34:42.115Z,3.86
2023-03-12T09:37:08.470Z,3.96
2023-03-12T09:39:35.043Z,4.04
2023-03-12T09:42:01.388Z,4.07
2023-03-12T09:44:39.911Z,4.04
2023-03-12T09:47:23.338Z,4.12
2023-03-12T09:49:52.086Z,4.15
2023-03-12T09:52:20.919Z,4.14
2023-03-12T09:55:15.171Z,4.19
2023-03-12T09:57:41.739Z,4.25
2023-03-12T10:00:12.278Z,4.33
2023-03-12T10:03:00.686Z,4.33
2023-03-12T10:05:36.618Z,4.31
2023-03-12T10:08:24.207Z,4.41
2023-03-12T10:11:02.775Z,4.53
2023-03-12T10:13:37.786Z,4.52
2023-03-12T10:16:12.306Z,4.59
2023-03-12T10:18:41.892Z,4.62
2023-03-12T10:21:13.240Z,4.69
2023-03-12T10:24:03.204Z,4.81
2023-03-12T10:26:33.004Z,4.90
2023-03-12T10:29:10.778Z,4.94
2023-03-12T10:31:43.822Z,5.01
2023-03-12T10:34:46.659Z,5.08
2023-03-12T10:37:21.558Z,5.04
2023-03-12T10:39:48.347Z,5.02
2023-03-12T10:42:20.256Z,5.04
2023-03-12T10:44:47.670Z,5.00
2023-03-12T10:47:39.218Z,4.93
2023-03-12T10:50:13.034Z,4.83
2023-03-12T10:52:39.576Z,4.90
2023-03-12T10:55:13.604Z,4.84
2023-03-12T10:57:41.028Z,4.91
2023-03-12T11:00:11.818Z,4.96
2023-03-12T11:02:41.488Z,5.09
2023-03-12T11:05:29.536Z,5.22
2023-03-12T11:07:55.979Z,5.36
2023-03-12T11:10:27.434Z,5.48
2023-03-12T11:12:59.634Z,5.41
2023-03-12T11:15:29.061Z,5.44
2023-03-12T11:18:19.258Z,5.32
2023-03-12T11:20:45.922Z,5.25
2023-03-12T11:23:30.616Z,5.14
2023-03-12T11:26:05.478Z,5.01
2023-03-12T11:28:40.463Z,4.95
2023-03-12T11:31:11.109Z,4.88
2023-03-12T11:33:37.573Z,4.85
2023-03-12T11:36:27.293Z,4.72
2023-03-12T11:39:09.891Z,4.63
2023-03-12T11:41:51.648Z,4.58
2023-03-12T11:44:21.920Z,4.65
2023-03-12T11:47:29.048Z,4.56
2023-03-12T11:50:30.771Z,4.52
2023-03-12T11:53:22.053Z,4.46
2023-03-12T11:55:58.501Z,4.49
2023-03-12T11:58:31.402Z,4.48
2023-03-12T12:01:16.991Z,4.51
2023-03-12T12:04:13.996Z,4.47
2023-03-12T12:07:19.045Z,4.42
2023-03-12T12:10:14.903Z,4.46
2023-03-12T12:12:45.216Z,4.40
2023-03-12T12:15:27.830Z,4.27
2023-03-12T12:17:57.093Z,4.20
2023-03-12T12:20:41.941Z,4.18
2023-03-12T12:23:30.292Z,4.16
2023-03-12T12:25:59.251Z,4.06
2023-03-12T12:28:28.565Z,4.05
2023-03-12T12:31:07.275Z,4.11
2023-03-12T12:33:40.083Z,4.16
2023-03-12T12:36:09.596Z,4.21
2023-03-12T12:38:39.709Z,4.21
2023-03-12T12:41:18.275Z,4.21
2023-03-12T12:43:49.069Z,4.19
2023-03-12T12:46:21.291Z,4.22
2023-03-12T12:49:08.366Z,4.21
2023-03-12T12:51:46.244Z,4.20
2023-03-12T12:54:27.600Z,4.23
2023-03-12T12:56:56.269Z,4.22
2023-03-12T12:59:27.331Z,4.20
2023-03-12T13:01:54.893Z,4.20
2023-03-12T13:04:28.827Z,4.29
2023-03-12T13:07:13.550Z,4.38
2023-03-12T13:09:45.006Z,4.38
2023-03-12T13:12:30.470Z,4.33
2023-03-12T13:14:57.635Z,4.37
2023-03-12T13:17:53.663Z,4.36
2023-03-12T13:20:21.042Z,4.40
2023-03-12T13:23:18.000Z,4.39
2023-03-12T13:25:59.989Z,4.30
2023-03-12T13:28:30.346Z,4.19
2023-03-12T13:30:57.419Z,4.19
2023-03-12T13:33:42.032Z,4.07
2023-03-12T13:36:23.927Z,4.07
2023-03-12T13:39:06.098Z,4.03
2023-03-12T13:41:42.588Z,3.98
2023-03-12T13:44:27.313Z,4.00
2023-03-12T13:47:04.068Z,4.04
2023-03-12T13:49:43.814Z,4.10
2023-03-12T13:52:16.484Z,4.11
2023-03-12T13:54:44.643Z,4.14
2023-03-12T13:57:32.649Z,4.13
2023-03-12T13:59:59.030Z,4.18
2023-03-12T14:02:33.920Z,4.21
2023-03-12T14:05:05.783Z,4.24
2023-03-12T14:08:10.826Z,4.30
2023-03-12T14:11:03.098Z,4.26
2023-03-12T14:13:36.257Z,4.16
2023-03-12T14:16:17.901Z,4.11
2023-03-12T14:18:44.654Z,4.05
2023-03-12T14:21:14.579Z,4.09
2023-03-12T14:23:46.112Z,4.09
2023-03-12T14:26:17.278Z,4.04
2023-03-12T14:28:43.681Z,4.03
2023-03-12T14:31:14.978Z,4.06
2023-03-12T14:33:50.970Z,4.05
2023-03-12T14:36:21.234Z,4.05
2023-03-12T14:38:48.854Z,4.07
2023-03-12T14:41:21.313Z,4.04
2023-03-12T14:43:51.673Z,4.07
2023-03-12T14:46:22.575Z,4.06
2023-03-12T14:48:50.411Z,4.10
2023-03-12T14:51:25.214Z,4.03
2023-03-12T14:53:52.168Z,4.00
2023-03-12T14:56:24.973Z,3.96
2023-03-12T14:58:51.692Z,3.97
2023-03-12T15:01:21.108Z,3.97
2023-03-12T15:03:50.100Z,3.97
2023-03-12T15:06:25.711Z,3.90
2023-03-12T15:08:52.307Z,3.94
2023-03-12T15:11:26.832Z,3.91
2023-03-12T15:13:56.410Z,3.93
2023-03-12T15:16:22.808Z,3.95
2023-03-12T15:18:50.159Z,3.93
2023-03-12T15:21:16.653Z,3.96
2023-03-12T15:23:44.569Z,3.93
2023-03-12T15:26:20.519Z,3.92
2023-03-12T15:29:03.039Z,3.88
2023-03-12T15:31:46.680Z,3.89
2023-03-12T15:34:14.788Z,3.92
2023-03-12T15:36:48.751Z,3.90
2023-03-12T15:39:26.278Z,3.88
2023-03-12T15:41:53.281Z,3.85
2023-03-12T15:44:27.288Z,3.85
2023-03-12T15:47:02.226Z,3.85
2023-03-12T15:49:30.809Z,3.87
2023-03-12T15:51:58.798Z,3.90
2023-03-12T15:54:27.169Z,3.93
2023-03-12T15:56:53.772Z,3.91
2023-03-12T15:59:25.842Z,3.91
2023-03-12T16:01:53.584Z,3.94
2023-03-12T16:04:20.240Z,3.95
2023-03-12T16:06:48.877Z,4.02
2023-03-12T16:09:19.865Z,4.09
2023-03-12T16:11:46.302Z,4.12
2023-03-12T16:14:22.899Z,4.17
2023-03-12T16:16:49.408Z,4.21
2023-03-12T16:19:17.864Z,4.22
2023-03-12T16:21:44.364Z,4.26
2023-03-12T16:24:10.907Z,4.28
2023-03-12T16:26:43.083Z,4.27
2023-03-12T16:29:10.552Z,4.31
2023-03-12T16:31:37.077Z,4.32
2023-03-12T16:34:03.683Z,4.34
2023-03-12T16:36:30.024Z,4.35
2023-03-12T16:38:56.884Z,4.39
2023-03-12T16:41:23.480Z,4.42
2023-03-12T16:43:50.377Z,4.44
2023-03-12T16:46:20.962Z,4.47
2023-03-12T16:48:52.487Z,4.51
2023-03-12T16:51:19.029Z,4.52
2023-03-12T16:53:49.113Z,4.52
2023-03-12T16:56:22.107Z,4.50
2023-03-12T16:58:49.739Z,4.50
2023-03-12T17:01:19.016Z,4.52
2023-03-12T17:03:49.124Z,4.52
2023-03-12T17:06:17.852Z,4.52
2023-03-12T17:08:44.394Z,4.53
2023-03-12T17:11:18.001Z,4.54
2023-03-12T17:13:45.707Z,4.55
2023-03-12T17:16:12.805Z,4.57
2023-03-12T17:18:40.325Z,4.61
2023-03-12T17:21:07.083Z,4.60
2023-03-12T17:23:33.507Z,4.59
2023-03-12T17:26:00.157Z,4.57
2023-03-12T17:28:26.538Z,4.57
2023-03-12T17:30:52.946Z,4.58
2023-03-12T17:33:19.432Z,4.58
2023-03-12T17:35:46.053Z,4.58
2023-03-12T17:38:12.498Z,4.60
2023-03-12T17:40:40.564Z,4.63
2023-03-12T17:43:06.948Z,4.65
2023-03-12T17:45:34.003Z,4.65
2023-03-12T17:48:00.391Z,4.69
2023-03-12T17:50:26.766Z,4.73
2023-03-12T17:52:53.131Z,4.76
2023-03-12T17:55:19.762Z,4.76
2023-03-12T17:57:46.151Z,4.78
2023-03-12T18:00:13.222Z,4.81
2023-03-12T18:02:40.328Z,4.80
2023-03-12T18:05:07.929Z,4.82
2023-03-12T18:07:34.616Z,4.81
2023-03-12T18:10:01.052Z,4.84
2023-03-12T18:12:27.445Z,4.90
2023-03-12T18:14:53.898Z,4.93
2023-03-12T18:17:20.306Z,4.96
2023-03-12T18:19:46.701Z,5.00
2023-03-12T18:22:14.466Z,5.03
2023-03-12T18:24:41.708Z,5.07
2023-03-12T18:27:08.230Z,5.08
2023-03-12T18:29:36.720Z,5.09
2023-03-12T18:32:03.812Z,5.11
2023-03-12T18:34:30.171Z,5.12
2023-03-12T18:36:56.572Z,5.14
2023-03-12T18:39:23.067Z,5.16
2023-03-12T18:41:49.455Z,5.18
2023-03-12T18:44:15.844Z,5.24
2023-03-12T18:46:42.261Z,5.29
2023-03-12T18:49:08.901Z,5.27
2023-03-12T18:51:35.348Z,5.30
2023-03-12T18:54:01.977Z,5.33
2023-03-12T18:56:28.759Z,5.36
2023-03-12T18:58:55.318Z,5.38
2023-03-12T19:01:21.830Z,5.38
2023-03-12T19:03:48.258Z,5.39
2023-03-12T19:06:15.749Z,5.44
2023-03-12T19:08:42.534Z,5.46
2023-03-12T19:11:13.453Z,5.54
2023-03-12T19:13:40.117Z,5.60
2023-03-12T19:16:10.530Z,5.58
2023-03-12T19:18:37.559Z,5.58
2023-03-12T19:21:04.778Z,5.59
2023-03-12T19:23:31.141Z,5.61
2023-03-12T19:25:57.531Z,5.67
2023-03-12T19:28:23.982Z,5.68
2023-03-12T19:30:50.412Z,5.69
2023-03-12T19:33:16.809Z,5.73
2023-03-12T19:35:43.269Z,5.73
2023-03-12T19:38:09.657Z,5.73
2023-03-12T19:40:36.048Z,5.79
2023-03-12T19:43:02.606Z,5.86
2023-03-12T19:45:29.255Z,5.91
2023-03-12T19:47:55.761Z,5.87
2023-03-12T19:50:22.180Z,5.91
2023-03-12T19:52:48.553Z,5.91
2023-03-12T19:55:15.035Z,5.95
2023-03-12T19:57:41.420Z,6.01
2023-03-12T20:00:12.055Z,6.01
2023-03-12T20:02:38.887Z,6.01
2023-03-12T20:05:06.047Z,6.06
2023-03-12T20:07:32.626Z,6.08
2023-03-12T20:09:58.994Z,6.08
2023-03-12T20:12:25.452Z,6.12
2023-03-12T20:14:51.822Z,6.12
2023-03-12T20:17:18.210Z,6.10
2023-03-12T20:19:44.562Z,6.14
2023-03-12T20:22:10.919Z,6.10
2023-03-12T20:24:37.411Z,6.11
2023-03-12T20:27:04.536Z,6.18
2023-03-12T20:29:30.955Z,6.16
2023-03-12T20:31:57.488Z,6.11
2023-03-12T20:34:23.938Z,6.09
2023-03-12T20:36:50.395Z,6.01
2023-03-12T20:39:16.746Z,5.96
2023-03-12T20:41:43.097Z,5.96
2023-03-12T20:44:09.464Z,5.99
2023-03-12T20:46:35.805Z,6.03
2023-03-12T20:49:02.195Z,6.07
2023-03-12T20:51:28.551Z,6.09
2023-03-12T20:53:54.930Z,6.07
2023-03-12T20:56:21.301Z,6.10
2023-03-12T20:58:47.645Z,6.16
2023-03-12T21:01:14.155Z,6.22
2023-03-12T21:03:40.523Z,6.26
2023-03-12T21:06:07.015Z,6.33
2023-03-12T21:08:34.300Z,6.29
2023-03-12T21:11:00.702Z,6.31
2023-03-12T21:13:27.256Z,6.34
2023-03-12T21:15:53.625Z,6.34
2023-03-12T21:18:20.039Z,6.32
2023-03-12T21:20:46.598Z,6.34
2023-03-12T21:23:13.008Z,6.33
2023-03-12T21:25:40.369Z,6.30
2023-03-12T21:28:07.175Z,6.32
2023-03-12T21:30:33.606Z,6.31
2023-03-12T21:33:01.125Z,6.27
2023-03-12T21:35:27.672Z,6.28
2023-03-12T21:37:56.104Z,6.34
2023-03-12T21:40:23.270Z,6.41
2023-03-12T21:42:49.937Z,6.41
2023-03-12T21:45:16.457Z,6.45
2023-03-12T21:47:42.813Z,6.48
2023-03-12T21:50:09.887Z,6.50
2023-03-12T21:52:43.010Z,6.52
2023-03-12T21:55:10.061Z,6.53
2023-03-12T21:57:36.592Z,6.49
2023-03-12T22:00:03.953Z,6.51
2023-03-12T22:02:31.556Z,6.49
2023-03-12T22:05:01.003Z,6.48
2023-03-12T22:07:29.946Z,6.44
2023-03-12T22:09:56.404Z,6.43
2023-03-12T22:12:22.900Z,6.46
2023-03-12T22:14:49.305Z,6.51
2023-03-12T22:17:15.977Z,6.52
2023-03-12T22:19:42.323Z,6.51
2023-03-12T22:22:09.074Z,6.57
2023-03-12T22:24:35.502Z,6.51
2023-03-12T22:27:03.287Z,6.49
2023-03-12T22:29:29.705Z,6.49
2023-03-12T22:31:56.250Z,6.53
2023-03-12T22:34:22.622Z,6.57
2023-03-12T22:36:49.026Z,6.55
2023-03-12T22:39:16.808Z,6.62
2023-03-12T22:41:43.220Z,6.67
2023-03-12T22:44:09.640Z,6.75
2023-03-12T22:46:36.366Z,6.67
2023-03-12T22:49:03.458Z,6.70
2023-03-12T22:51:30.696Z,6.76
2023-03-12T22:53:57.318Z,6.79
2023-03-12T22:56:23.786Z,6.82
2023-03-12T22:58:50.473Z,6.86
2023-03-12T23:01:19.464Z,6.88
2023-03-12T23:03:45.990Z,6.89
2023-03-12T23:06:14.578Z,6.94
2023-03-12T23:08:41.013Z,6.94
2023-03-12T23:11:07.931Z,6.95
2023-03-12T23:13:35.911Z,6.99
2023-03-12T23:16:04.812Z,7.01
2023-03-12T23:18:31.511Z,7.08
2023-03-12T23:21:01.877Z,7.09
2023-03-12T23:23:28.685Z,7.10
2023-03-12T23:25:55.763Z,7.11
2023-03-12T23:28:22.215Z,7.11
2023-03-12T23:31:01.876Z,7.11
2023-03-12T23:33:28.491Z,7.16
2023-03-12T23:35:59.493Z,7.07
2023-03-12T23:38:26.468Z,7.01
2023-03-12T23:40:52.929Z,7.04
2023-03-12T23:43:19.570Z,7.08
2023-03-12T23:45:46.064Z,7.11
2023-03-12T23:48:12.682Z,7.12
2023-03-12T23:50:39.189Z,7.10
2023-03-12T23:53:05.566Z,7.10
2023-03-12T23:55:31.937Z,7.06
2023-03-12T23:57:58.272Z,7.08
